Time;durP1;ratioP1;P1;durP2;ratioP2;P2;SDS_P1;SDS_P2;PMS_P1;PMS_P2;Temp;Humidity;BMP_temperature;BMP_pressure;BME280_temperature;BME280_humidity;BME280_pressure;Samples;Min_cycle;Max_cycle;Signal;HPM_P1;HPM_P2
2022/10/08 00:01:22;;;;;;;2.93;2.50;;;;;;;;;;4979561;28;20218;-58
2022/10/08 00:03:50;;;;;;;3.57;3.20;;;;;;;;;;4981895;28;20313;-57
2022/10/08 00:06:17;;;;;;;4.63;3.20;;;;;;;;;;4983883;28;20183;-58
2022/10/08 00:08:48;;;;;;;3.13;2.83;;;;;;;;;;4988040;28;20183;-59
2022/10/08 00:11:15;;;;;;;4.67;2.87;;;;;;;;;;4983302;28;20190;-58
2022/10/08 00:13:42;;;;;;;4.80;2.53;;;;;;;;;;4994270;28;20213;-58
2022/10/08 00:16:15;;;;;;;3.13;2.57;;;;;;;;;;4985035;28;20212;-57
2022/10/08 00:18:48;;;;;;;5.20;2.90;;;;;;;;;;4978818;28;20202;-57
2022/10/08 00:21:16;;;;;;;3.53;2.83;;;;;;;;;;4980559;28;20183;-58
2022/10/08 00:23:45;;;;;;;4.00;2.67;;;;;;;;;;4985234;28;20273;-58
2022/10/08 00:26:11;;;;;;;6.33;3.30;;;;;;;;;;4988956;28;20206;-58
2022/10/08 00:28:38;;;;;;;5.40;3.13;;;;;;;;;;4988060;28;20211;-57
2022/10/08 00:31:09;;;;;;;5.60;2.60;;;;;;;;;;4975804;28;20724;-58
2022/10/08 00:33:36;;;;;;;3.17;2.40;;;;;;;;;;4981867;28;20190;-57
2022/10/08 00:36:06;;;;;;;3.43;2.23;;;;;;;;;;4987866;28;20209;-58
2022/10/08 00:38:32;;;;;;;3.40;2.90;;;;;;;;;;4986668;28;20209;-58
2022/10/08 00:40:59;;;;;;;4.37;2.90;;;;;;;;;;4987177;28;20244;-59
2022/10/08 00:43:45;;;;;;;3.13;2.40;;;;;;;;;;4979213;28;20324;-57
2022/10/08 00:46:14;;;;;;;3.60;2.40;;;;;;;;;;4979008;28;20175;-57
2022/10/08 00:48:41;;;;;;;4.07;2.90;;;;;;;;;;4982121;28;20255;-57
2022/10/08 00:51:07;;;;;;;4.10;2.90;;;;;;;;;;4984276;28;20553;-57
2022/10/08 00:53:33;;;;;;;5.13;2.50;;;;;;;;;;4986607;28;20184;-59
2022/10/08 00:56:00;;;;;;;3.63;2.80;;;;;;;;;;4987467;28;20209;-58
2022/10/08 00:58:27;;;;;;;7.43;2.80;;;;;;;;;;4955535;28;20195;-57
2022/10/08 01:00:53;;;;;;;4.30;3.03;;;;;;;;;;4984402;28;20607;-57
2022/10/08 01:03:19;;;;;;;4.47;3.20;;;;;;;;;;4987105;28;20717;-58
2022/10/08 01:05:54;;;;;;;3.00;2.70;;;;;;;;;;4982116;28;20242;-58
2022/10/08 01:08:20;;;;;;;3.70;2.60;;;;;;;;;;4989387;28;20285;-58
2022/10/08 01:10:51;;;;;;;5.27;2.97;;;;;;;;;;4985449;28;20208;-58
2022/10/08 01:13:36;;;;;;;4.87;2.53;;;;;;;;;;4987245;28;20185;-59
2022/10/08 01:16:18;;;;;;;3.60;2.60;;;;;;;;;;4980895;28;20183;-58
2022/10/08 01:18:47;;;;;;;3.47;2.70;;;;;;;;;;4977089;28;20203;-58
2022/10/08 01:21:13;;;;;;;4.10;2.80;;;;;;;;;;4977523;28;20191;-58
2022/10/08 01:23:58;;;;;;;4.07;2.90;;;;;;;;;;4991868;28;20745;-58
2022/10/08 01:26:30;;;;;;;3.53;2.77;;;;;;;;;;4978291;28;20713;-59
2022/10/08 01:29:15;;;;;;;3.20;2.83;;;;;;;;;;4984106;28;20676;-58
2022/10/08 01:31:47;;;;;;;3.53;2.57;;;;;;;;;;4976606;28;20183;-58
2022/10/08 01:34:20;;;;;;;3.73;2.90;;;;;;;;;;4969198;28;20190;-57
2022/10/08 01:36:48;;;;;;;3.13;2.53;;;;;;;;;;4984448;28;20175;-58
2022/10/08 01:39:19;;;;;;;4.17;2.80;;;;;;;;;;4970473;28;20214;-58
2022/10/08 01:41:51;;;;;;;3.00;2.53;;;;;;;;;;4982066;28;20470;-59
2022/10/08 01:44:40;;;;;;;6.93;3.13;;;;;;;;;;4989017;28;20761;-58
2022/10/08 01:47:08;;;;;;;4.10;2.83;;;;;;;;;;4973016;28;20211;-58
2022/10/08 01:49:40;;;;;;;3.60;2.50;;;;;;;;;;4977586;28;20704;-58
2022/10/08 01:52:16;;;;;;;3.43;2.97;;;;;;;;;;4982618;28;20246;-58
2022/10/08 01:54:44;;;;;;;4.27;2.90;;;;;;;;;;4982835;28;20689;-59
2022/10/08 01:57:13;;;;;;;3.93;2.60;;;;;;;;;;4978694;28;20250;-59
2022/10/08 01:59:42;;;;;;;3.33;2.60;;;;;;;;;;4981098;28;20782;-58
2022/10/08 02:02:20;;;;;;;3.33;2.60;;;;;;;;;;4987981;28;20178;-59
2022/10/08 02:04:48;;;;;;;5.17;2.60;;;;;;;;;;4977644;28;20249;-58
2022/10/08 02:07:15;;;;;;;3.97;3.00;;;;;;;;;;4976325;28;20178;-58
2022/10/08 02:09:43;;;;;;;3.27;2.40;;;;;;;;;;4981266;28;20692;-58
2022/10/08 02:12:09;;;;;;;2.73;2.53;;;;;;;;;;4986841;28;20168;-57
2022/10/08 02:14:37;;;;;;;4.03;2.93;;;;;;;;;;4980746;28;20218;-58
2022/10/08 02:17:09;;;;;;;3.20;2.50;;;;;;;;;;4980360;28;20180;-58
2022/10/08 02:19:48;;;;;;;5.40;3.27;;;;;;;;;;4984378;28;20210;-58
2022/10/08 02:22:16;;;;;;;6.90;2.90;;;;;;;;;;4983320;28;20535;-57
2022/10/08 02:25:03;;;;;;;3.30;2.63;;;;;;;;;;4982534;28;20635;-57
2022/10/08 02:27:34;;;;;;;3.37;3.07;;;;;;;;;;4972399;28;20203;-58
2022/10/08 02:30:06;;;;;;;7.33;2.70;;;;;;;;;;4979730;28;20618;-57
2022/10/08 02:32:42;;;;;;;4.73;2.83;;;;;;;;;;4980092;28;20175;-57
2022/10/08 02:35:24;;;;;;;5.97;2.60;;;;;;;;;;4988037;28;20618;-59
2022/10/08 02:37:57;;;;;;;3.87;2.70;;;;;;;;;;4978724;28;20627;-57
2022/10/08 02:40:23;;;;;;;4.67;2.90;;;;;;;;;;4978762;28;20619;-57
2022/10/08 02:42:52;;;;;;;4.10;2.70;;;;;;;;;;4973035;28;20618;-57
2022/10/08 02:45:21;;;;;;;4.13;2.50;;;;;;;;;;4977371;28;20233;-58
2022/10/08 02:47:50;;;;;;;4.70;2.43;;;;;;;;;;4977407;28;20345;-58
2022/10/08 02:50:18;;;;;;;5.00;3.03;;;;;;;;;;4986210;28;20614;-58
2022/10/08 02:52:45;;;;;;;4.93;2.77;;;;;;;;;;4981115;28;20562;-57
2022/10/08 02:55:19;;;;;;;3.90;2.93;;;;;;;;;;4976840;28;20187;-58
2022/10/08 02:57:47;;;;;;;4.13;2.30;;;;;;;;;;4979247;28;20236;-59
2022/10/08 03:00:13;;;;;;;4.47;2.47;;;;;;;;;;4985747;28;20171;-57
2022/10/08 03:02:47;;;;;;;3.77;2.57;;;;;;;;;;4978779;28;20242;-57
2022/10/08 03:05:16;;;;;;;4.77;2.70;;;;;;;;;;4975365;28;20171;-58
2022/10/08 03:07:43;;;;;;;3.97;2.70;;;;;;;;;;4978790;28;20544;-57
2022/10/08 03:10:09;;;;;;;3.43;2.40;;;;;;;;;;4979418;28;20238;-57
2022/10/08 03:12:35;;;;;;;3.00;2.70;;;;;;;;;;4985363;28;20187;-58
2022/10/08 03:15:01;;;;;;;4.37;2.60;;;;;;;;;;4983670;28;20631;-59
2022/10/08 03:17:31;;;;;;;3.77;2.53;;;;;;;;;;4981296;28;20266;-58
2022/10/08 03:19:58;;;;;;;3.60;2.63;;;;;;;;;;4977045;28;20180;-58
2022/10/08 03:22:24;;;;;;;4.37;2.53;;;;;;;;;;4982261;28;20234;-58
2022/10/08 03:24:50;;;;;;;3.00;2.67;;;;;;;;;;4972882;28;20176;-57
2022/10/08 03:27:16;;;;;;;4.83;2.63;;;;;;;;;;4982877;28;20194;-58
2022/10/08 03:29:42;;;;;;;5.30;3.00;;;;;;;;;;4977952;28;20186;-58
2022/10/08 03:32:09;;;;;;;4.43;4.03;;;;;;;;;;4981950;28;20258;-58
2022/10/08 03:34:35;;;;;;;3.27;2.53;;;;;;;;;;4968848;28;20184;-57
2022/10/08 03:37:01;;;;;;;4.33;2.47;;;;;;;;;;4975056;28;20190;-57
2022/10/08 03:39:27;;;;;;;5.63;2.57;;;;;;;;;;4967075;28;20936;-58
2022/10/08 03:41:53;;;;;;;4.23;2.60;;;;;;;;;;4982654;28;20179;-59
2022/10/08 03:44:19;;;;;;;2.30;2.10;;;;;;;;;;4975266;28;20286;-58
2022/10/08 03:46:45;;;;;;;4.37;2.43;;;;;;;;;;4986664;28;20167;-57
2022/10/08 03:49:14;;;;;;;2.83;2.27;;;;;;;;;;4975784;28;20543;-57
2022/10/08 03:51:40;;;;;;;4.73;2.97;;;;;;;;;;4983738;28;20549;-57
2022/10/08 03:54:06;;;;;;;3.77;2.20;;;;;;;;;;4981695;28;20183;-57
2022/10/08 03:56:32;;;;;;;2.77;2.27;;;;;;;;;;4983783;28;20208;-57
2022/10/08 03:59:04;;;;;;;4.90;2.50;;;;;;;;;;4976988;28;20236;-58
2022/10/08 04:01:30;;;;;;;5.50;2.40;;;;;;;;;;4976228;28;20175;-58
2022/10/08 04:03:56;;;;;;;3.83;2.67;;;;;;;;;;4980173;28;20705;-57
2022/10/08 04:06:22;;;;;;;3.77;3.43;;;;;;;;;;4978952;28;20632;-58
2022/10/08 04:08:48;;;;;;;2.67;2.10;;;;;;;;;;4976905;28;20180;-58
2022/10/08 04:11:15;;;;;;;5.95;2.60;;;;;;;;;;4980770;28;20821;-57
2022/10/08 04:13:42;;;;;;;3.50;2.30;;;;;;;;;;4973984;28;20187;-58
2022/10/08 04:16:10;;;;;;;3.20;2.30;;;;;;;;;;4980545;28;20211;-57
2022/10/08 04:18:36;;;;;;;2.97;2.43;;;;;;;;;;4980957;28;20215;-57
2022/10/08 04:21:04;;;;;;;3.17;2.53;;;;;;;;;;4980877;28;20172;-57
2022/10/08 04:23:31;;;;;;;2.60;2.23;;;;;;;;;;4984738;28;20187;-57
2022/10/08 04:25:57;;;;;;;6.20;2.40;;;;;;;;;;4987487;28;20583;-57
2022/10/08 04:28:23;;;;;;;3.93;2.40;;;;;;;;;;4975949;28;20665;-58
2022/10/08 04:30:56;;;;;;;7.83;3.17;;;;;;;;;;4979723;28;20650;-57
2022/10/08 04:33:22;;;;;;;4.80;3.80;;;;;;;;;;4983025;28;20185;-57
2022/10/08 04:35:48;;;;;;;3.57;2.43;;;;;;;;;;4980956;28;20199;-57
2022/10/08 04:38:14;;;;;;;2.80;2.33;;;;;;;;;;4973138;28;20219;-56
2022/10/08 04:40:40;;;;;;;2.60;2.07;;;;;;;;;;4979593;28;20171;-58
2022/10/08 04:43:06;;;;;;;3.53;2.60;;;;;;;;;;4976582;28;20227;-57
2022/10/08 04:45:32;;;;;;;5.70;2.80;;;;;;;;;;4984978;28;20633;-57
2022/10/08 04:47:58;;;;;;;4.03;2.40;;;;;;;;;;4984186;28;20183;-58
2022/10/08 04:50:25;;;;;;;3.03;2.03;;;;;;;;;;4985091;28;20659;-57
2022/10/08 04:52:51;;;;;;;4.00;2.00;;;;;;;;;;4980415;28;20650;-57
2022/10/08 04:55:17;;;;;;;2.73;2.37;;;;;;;;;;4983785;28;20314;-57
2022/10/08 04:57:43;;;;;;;3.43;2.17;;;;;;;;;;4981771;28;20666;-58
2022/10/08 05:00:18;;;;;;;2.87;2.10;;;;;;;;;;4985899;28;20188;-57
2022/10/08 05:02:44;;;;;;;2.77;2.20;;;;;;;;;;4989317;28;20179;-57
2022/10/08 05:05:11;;;;;;;2.20;2.00;;;;;;;;;;4987591;28;20198;-57
2022/10/08 05:07:37;;;;;;;2.23;1.90;;;;;;;;;;4986511;28;20179;-58
2022/10/08 05:10:03;;;;;;;3.00;2.13;;;;;;;;;;4985658;28;20530;-57
2022/10/08 05:12:29;;;;;;;3.30;2.30;;;;;;;;;;4989541;28;20179;-57
2022/10/08 05:14:55;;;;;;;4.83;2.40;;;;;;;;;;4978097;28;20186;-58
2022/10/08 05:17:21;;;;;;;3.40;2.50;;;;;;;;;;4985742;28;20401;-57
2022/10/08 05:19:47;;;;;;;3.03;2.17;;;;;;;;;;4977118;28;20569;-58
2022/10/08 05:22:13;;;;;;;4.97;2.53;;;;;;;;;;4985320;28;20186;-57
2022/10/08 05:24:39;;;;;;;5.47;2.17;;;;;;;;;;4986292;28;20408;-58
2022/10/08 05:27:05;;;;;;;3.83;2.87;;;;;;;;;;4984099;28;20179;-57
2022/10/08 05:29:31;;;;;;;4.53;1.83;;;;;;;;;;4986077;28;20662;-57
2022/10/08 05:31:57;;;;;;;2.27;2.10;;;;;;;;;;4986202;28;20187;-57
2022/10/08 05:34:23;;;;;;;3.70;2.30;;;;;;;;;;4986544;28;20805;-58
2022/10/08 05:36:50;;;;;;;4.03;2.43;;;;;;;;;;4985877;28;20180;-58
2022/10/08 05:39:16;;;;;;;3.13;2.30;;;;;;;;;;4975438;28;20203;-58
2022/10/08 05:41:42;;;;;;;2.70;2.20;;;;;;;;;;4978593;28;20183;-57
2022/10/08 05:44:09;;;;;;;2.63;2.30;;;;;;;;;;4971949;28;20180;-58
2022/10/08 05:46:36;;;;;;;2.53;1.90;;;;;;;;;;4983302;28;20175;-57
2022/10/08 05:49:04;;;;;;;2.33;2.03;;;;;;;;;;4984484;28;20200;-58
2022/10/08 05:51:30;;;;;;;3.33;2.40;;;;;;;;;;4978759;28;20237;-58
2022/10/08 05:53:59;;;;;;;2.20;2.00;;;;;;;;;;4983400;28;20269;-57
2022/10/08 05:56:30;;;;;;;7.17;2.87;;;;;;;;;;4981513;28;20633;-57
2022/10/08 05:58:58;;;;;;;5.27;2.23;;;;;;;;;;4964219;28;20214;-58
2022/10/08 06:01:30;;;;;;;3.50;2.10;;;;;;;;;;4975637;28;20183;-58
2022/10/08 06:04:10;;;;;;;2.57;2.37;;;;;;;;;;4982238;28;20227;-58
2022/10/08 06:06:37;;;;;;;3.17;2.30;;;;;;;;;;4977612;28;20182;-57
2022/10/08 06:09:04;;;;;;;2.63;2.13;;;;;;;;;;4983722;28;20191;-58
2022/10/08 06:11:31;;;;;;;2.97;2.47;;;;;;;;;;4981718;28;20547;-58
2022/10/08 06:13:58;;;;;;;3.97;2.40;;;;;;;;;;4976896;28;20234;-58
2022/10/08 06:16:24;;;;;;;3.10;2.30;;;;;;;;;;4976833;28;20213;-58
2022/10/08 06:18:50;;;;;;;2.77;1.87;;;;;;;;;;4972868;28;20203;-58
2022/10/08 06:21:18;;;;;;;5.47;2.90;;;;;;;;;;4975282;28;20190;-58
2022/10/08 06:23:45;;;;;;;2.27;2.07;;;;;;;;;;4982037;28;20176;-58
2022/10/08 06:26:12;;;;;;;2.50;2.30;;;;;;;;;;4981757;28;20539;-59
2022/10/08 06:28:38;;;;;;;4.20;2.30;;;;;;;;;;4974077;28;20200;-58
2022/10/08 06:31:05;;;;;;;5.17;2.77;;;;;;;;;;4973848;28;20194;-58
2022/10/08 06:33:31;;;;;;;2.63;2.40;;;;;;;;;;4978809;28;20182;-58
2022/10/08 06:36:04;;;;;;;3.13;2.80;;;;;;;;;;4981715;28;20210;-57
2022/10/08 06:38:30;;;;;;;4.53;3.47;;;;;;;;;;4973424;28;20211;-63
2022/10/08 06:40:57;;;;;;;5.20;3.20;;;;;;;;;;4980846;28;20190;-58
2022/10/08 06:43:23;;;;;;;3.20;2.90;;;;;;;;;;4977921;28;20647;-58
2022/10/08 06:45:49;;;;;;;5.13;3.17;;;;;;;;;;4977738;28;20215;-58
2022/10/08 06:48:16;;;;;;;4.97;3.50;;;;;;;;;;4982170;28;20200;-58
2022/10/08 06:50:42;;;;;;;7.83;3.47;;;;;;;;;;4982127;28;20934;-58
2022/10/08 06:53:10;;;;;;;7.10;3.63;;;;;;;;;;4981655;28;20298;-58
2022/10/08 06:55:36;;;;;;;8.23;5.67;;;;;;;;;;4985583;28;20188;-58
2022/10/08 06:58:03;;;;;;;5.50;4.43;;;;;;;;;;4974044;28;20206;-57
2022/10/08 07:00:29;;;;;;;8.43;4.43;;;;;;;;;;4977111;28;20364;-57
2022/10/08 07:02:56;;;;;;;6.83;4.77;;;;;;;;;;4982403;28;20195;-58
2022/10/08 07:05:22;;;;;;;5.50;4.67;;;;;;;;;;4982017;28;20234;-58
2022/10/08 07:07:48;;;;;;;5.03;4.57;;;;;;;;;;4980769;28;20610;-57
2022/10/08 07:10:15;;;;;;;6.17;5.50;;;;;;;;;;4965304;28;20186;-58
2022/10/08 07:12:41;;;;;;;9.00;5.03;;;;;;;;;;4989341;28;20187;-58
2022/10/08 07:15:07;;;;;;;9.43;5.23;;;;;;;;;;4988518;28;20242;-58
2022/10/08 07:17:33;;;;;;;10.57;5.60;;;;;;;;;;4992156;28;20174;-58
2022/10/08 07:20:00;;;;;;;6.53;4.70;;;;;;;;;;4989517;28;20233;-58
2022/10/08 07:22:26;;;;;;;7.47;5.10;;;;;;;;;;4993170;28;20260;-58
2022/10/08 07:24:52;;;;;;;6.37;5.33;;;;;;;;;;4992650;28;20188;-58
2022/10/08 07:27:18;;;;;;;6.07;4.80;;;;;;;;;;4990181;28;20209;-57
2022/10/08 07:29:45;;;;;;;6.10;5.23;;;;;;;;;;4987760;28;20226;-57
2022/10/08 07:32:11;;;;;;;7.23;5.30;;;;;;;;;;4991423;28;20643;-58
2022/10/08 07:34:37;;;;;;;7.20;4.77;;;;;;;;;;4957607;28;20203;-58
2022/10/08 07:37:03;;;;;;;5.70;4.93;;;;;;;;;;4981751;28;20643;-58
2022/10/08 07:39:29;;;;;;;6.67;5.83;;;;;;;;;;4982863;28;20234;-58
2022/10/08 07:41:55;;;;;;;8.37;5.03;;;;;;;;;;5001093;28;20183;-57
2022/10/08 07:44:21;;;;;;;6.57;4.57;;;;;;;;;;5001981;28;20174;-58
2022/10/08 07:46:49;;;;;;;6.70;5.33;;;;;;;;;;4996595;28;20683;-58
2022/10/08 07:49:21;;;;;;;6.43;5.10;;;;;;;;;;4992972;28;20531;-57
2022/10/08 07:51:48;;;;;;;6.27;5.57;;;;;;;;;;4992960;28;20265;-57
2022/10/08 07:54:15;;;;;;;6.87;5.60;;;;;;;;;;5000994;28;20728;-57
2022/10/08 07:56:41;;;;;;;8.60;6.27;;;;;;;;;;4990655;28;20182;-58
2022/10/08 07:59:08;;;;;;;8.57;6.00;;;;;;;;;;5002325;28;20307;-58
2022/10/08 08:01:34;;;;;;;7.03;6.10;;;;;;;;;;4996593;28;20175;-57
2022/10/08 08:04:05;;;;;;;12.10;7.33;;;;;;;;;;4993260;28;20254;-58
2022/10/08 08:06:32;;;;;;;8.63;6.73;;;;;;;;;;4977644;28;20176;-59
2022/10/08 08:09:02;;;;;;;10.77;7.13;;;;;;;;;;5000146;28;20240;-59
2022/10/08 08:11:28;;;;;;;7.97;6.40;;;;;;;;;;5004168;28;20182;-58
2022/10/08 08:13:54;;;;;;;9.80;6.40;;;;;;;;;;4982470;28;20246;-57
2022/10/08 08:16:25;;;;;;;8.93;6.13;;;;;;;;;;4989955;28;20182;-59
2022/10/08 08:18:53;;;;;;;11.60;7.20;;;;;;;;;;4977964;28;20215;-58
2022/10/08 08:21:21;;;;;;;8.03;6.63;;;;;;;;;;4985475;28;20187;-57
2022/10/08 08:23:51;;;;;;;7.73;6.83;;;;;;;;;;4997228;28;20193;-59
2022/10/08 08:26:19;;;;;;;7.87;7.07;;;;;;;;;;5000014;28;20188;-59
2022/10/08 08:28:45;;;;;;;9.83;7.10;;;;;;;;;;4989272;28;20705;-57
2022/10/08 08:31:16;;;;;;;8.20;6.97;;;;;;;;;;4973082;28;20184;-58
2022/10/08 08:33:43;;;;;;;8.70;7.17;;;;;;;;;;4987798;28;20180;-58
2022/10/08 08:36:09;;;;;;;8.53;7.00;;;;;;;;;;4986031;28;20626;-59
2022/10/08 08:38:38;;;;;;;8.67;7.80;;;;;;;;;;4987874;28;20206;-59
2022/10/08 08:41:11;;;;;;;9.63;7.33;;;;;;;;;;4982232;28;20268;-58
2022/10/08 08:43:37;;;;;;;12.30;8.60;;;;;;;;;;4993184;28;20489;-58
2022/10/08 08:46:03;;;;;;;10.40;7.80;;;;;;;;;;5003510;28;20210;-58
2022/10/08 08:48:32;;;;;;;10.07;7.60;;;;;;;;;;4987652;28;20241;-57
2022/10/08 08:50:59;;;;;;;8.87;7.40;;;;;;;;;;4987523;28;20668;-59
2022/10/08 08:53:26;;;;;;;11.17;8.73;;;;;;;;;;4994173;28;20290;-57
2022/10/08 08:55:54;;;;;;;8.63;7.73;;;;;;;;;;4994520;28;20250;-58
2022/10/08 08:58:24;;;;;;;9.27;7.07;;;;;;;;;;4995099;28;20258;-57
2022/10/08 09:00:54;;;;;;;9.53;7.63;;;;;;;;;;4995132;28;20185;-58
2022/10/08 09:03:24;;;;;;;8.17;7.00;;;;;;;;;;5001195;28;20179;-58
2022/10/08 09:05:52;;;;;;;8.97;7.63;;;;;;;;;;4970312;28;20186;-58
2022/10/08 09:08:21;;;;;;;9.77;8.03;;;;;;;;;;4974681;28;20207;-58
2022/10/08 09:10:58;;;;;;;9.20;7.23;;;;;;;;;;4981566;28;20218;-59
2022/10/08 09:13:28;;;;;;;11.13;7.50;;;;;;;;;;4976894;28;20227;-58
2022/10/08 09:15:54;;;;;;;9.83;6.70;;;;;;;;;;4976891;28;20198;-58
2022/10/08 09:18:21;;;;;;;9.67;7.17;;;;;;;;;;4974862;28;20192;-57
2022/10/08 09:20:47;;;;;;;11.60;7.23;;;;;;;;;;4960377;28;20176;-57
2022/10/08 09:23:18;;;;;;;8.90;6.10;;;;;;;;;;4976489;28;20176;-58
2022/10/08 09:25:48;;;;;;;8.17;6.50;;;;;;;;;;4971573;28;20641;-57
2022/10/08 09:28:34;;;;;;;9.77;7.10;;;;;;;;;;4959004;28;20547;-58
2022/10/08 09:31:11;;;;;;;8.53;6.03;;;;;;;;;;4982351;28;20744;-57
2022/10/08 09:33:39;;;;;;;7.37;6.03;;;;;;;;;;4975879;28;20194;-57
2022/10/08 09:36:05;;;;;;;8.70;6.17;;;;;;;;;;4968985;28;20176;-58
2022/10/08 09:38:35;;;;;;;7.33;5.63;;;;;;;;;;4952917;28;20212;-57
2022/10/08 09:41:17;;;;;;;9.67;5.77;;;;;;;;;;4949644;28;20174;-57
2022/10/08 09:43:44;;;;;;;9.43;5.60;;;;;;;;;;4959893;28;20682;-57
2022/10/08 09:46:30;;;;;;;6.00;5.37;;;;;;;;;;4952667;28;20671;-58
2022/10/08 09:48:56;;;;;;;6.37;5.47;;;;;;;;;;4969377;28;20670;-58
2022/10/08 09:51:23;;;;;;;6.30;4.70;;;;;;;;;;4961135;28;20529;-57
2022/10/08 09:53:53;;;;;;;9.40;4.53;;;;;;;;;;4971637;28;20180;-58
2022/10/08 09:56:27;;;;;;;5.77;4.87;;;;;;;;;;4974460;28;20281;-58
2022/10/08 09:58:58;;;;;;;7.03;5.17;;;;;;;;;;4971158;28;20697;-58
2022/10/08 10:01:24;;;;;;;5.93;4.73;;;;;;;;;;4972545;28;20646;-59
2022/10/08 10:03:54;;;;;;;5.27;4.30;;;;;;;;;;4984504;28;20569;-57
2022/10/08 10:06:31;;;;;;;6.33;4.50;;;;;;;;;;5005127;28;20210;-58
2022/10/08 10:09:16;;;;;;;4.57;4.17;;;;;;;;;;4988674;28;20214;-57
2022/10/08 10:11:59;;;;;;;6.27;4.30;;;;;;;;;;4985766;28;20671;-58
2022/10/08 10:14:27;;;;;;;5.73;4.50;;;;;;;;;;4995883;28;20285;-58
2022/10/08 10:17:11;;;;;;;7.50;4.47;;;;;;;;;;4983544;28;20373;-58
2022/10/08 10:19:51;;;;;;;6.63;3.97;;;;;;;;;;4980053;28;20227;-57
2022/10/08 10:22:21;;;;;;;6.50;3.80;;;;;;;;;;4990537;28;20615;-58
2022/10/08 10:24:55;;;;;;;4.93;3.53;;;;;;;;;;4987510;28;20179;-58
2022/10/08 10:27:21;;;;;;;7.43;3.17;;;;;;;;;;4987417;28;20257;-58
2022/10/08 10:30:08;;;;;;;8.00;3.17;;;;;;;;;;4985780;28;20198;-57
2022/10/08 10:32:39;;;;;;;3.50;3.13;;;;;;;;;;4986085;28;20197;-58
2022/10/08 10:35:14;;;;;;;7.93;3.47;;;;;;;;;;4986223;28;20195;-58
2022/10/08 10:38:04;;;;;;;5.27;3.57;;;;;;;;;;5002119;28;20197;-58
2022/10/08 10:40:31;;;;;;;7.10;3.27;;;;;;;;;;4973951;28;20688;-59
2022/10/08 10:43:06;;;;;;;3.23;2.57;;;;;;;;;;4979804;28;20175;-58
2022/10/08 10:45:35;;;;;;;4.77;2.63;;;;;;;;;;4984489;28;20642;-59
2022/10/08 10:48:02;;;;;;;4.73;2.60;;;;;;;;;;4985220;28;20197;-58
2022/10/08 10:50:34;;;;;;;3.50;2.70;;;;;;;;;;4992166;28;20685;-58
2022/10/08 10:53:15;;;;;;;4.60;2.80;;;;;;;;;;5001205;28;20183;-59
2022/10/08 10:55:51;;;;;;;4.27;2.40;;;;;;;;;;4968489;28;20276;-58
2022/10/08 10:58:29;;;;;;;4.07;2.50;;;;;;;;;;4982408;28;20658;-58
2022/10/08 11:01:05;;;;;;;5.90;2.70;;;;;;;;;;4984374;28;20193;-58
2022/10/08 11:03:50;;;;;;;3.40;2.30;;;;;;;;;;4998253;28;20265;-58
2022/10/08 11:06:34;;;;;;;3.47;2.03;;;;;;;;;;4974970;28;20186;-58
2022/10/08 11:09:08;;;;;;;3.63;1.93;;;;;;;;;;4975946;28;20705;-58
2022/10/08 11:11:38;;;;;;;4.77;2.60;;;;;;;;;;4973703;28;20209;-58
2022/10/08 11:14:10;;;;;;;2.53;1.80;;;;;;;;;;4966812;28;20186;-58
2022/10/08 11:16:55;;;;;;;3.03;2.27;;;;;;;;;;4967298;28;20211;-59
2022/10/08 11:19:34;;;;;;;2.47;1.80;;;;;;;;;;4968628;28;20251;-58
2022/10/08 11:22:07;;;;;;;1.97;1.70;;;;;;;;;;4966583;28;20171;-58
2022/10/08 11:24:45;;;;;;;3.53;1.80;;;;;;;;;;4969702;28;21163;-59
2022/10/08 11:27:17;;;;;;;2.47;1.63;;;;;;;;;;4960761;28;20187;-58
2022/10/08 11:29:52;;;;;;;3.33;1.87;;;;;;;;;;4965735;28;20631;-58
2022/10/08 11:32:28;;;;;;;6.07;2.40;;;;;;;;;;4968379;28;20152;-58
2022/10/08 11:35:03;;;;;;;1.80;1.70;;;;;;;;;;4984581;28;20171;-58
2022/10/08 11:37:43;;;;;;;3.03;2.83;;;;;;;;;;4967379;28;20199;-59
2022/10/08 11:40:28;;;;;;;4.30;1.90;;;;;;;;;;4965971;28;20183;-58
2022/10/08 11:43:13;;;;;;;3.77;1.97;;;;;;;;;;4970120;28;20301;-59
2022/10/08 11:45:44;;;;;;;2.43;1.80;;;;;;;;;;4973021;28;20195;-58
2022/10/08 11:48:31;;;;;;;4.33;1.77;;;;;;;;;;4972234;28;20175;-59
2022/10/08 11:51:16;;;;;;;4.20;1.80;;;;;;;;;;4969880;28;20198;-58
2022/10/08 11:53:42;;;;;;;4.33;1.83;;;;;;;;;;4983186;28;20262;-58
2022/10/08 11:56:11;;;;;;;2.23;1.50;;;;;;;;;;4960509;28;20188;-58
2022/10/08 11:58:37;;;;;;;4.17;1.67;;;;;;;;;;4971740;28;20207;-57
2022/10/08 12:01:05;;;;;;;5.00;2.00;;;;;;;;;;4970255;28;20271;-58
2022/10/08 12:03:33;;;;;;;3.50;1.87;;;;;;;;;;4979436;28;20177;-58
2022/10/08 12:06:19;;;;;;;2.53;1.80;;;;;;;;;;4988054;28;20681;-58
2022/10/08 12:08:51;;;;;;;1.87;1.70;;;;;;;;;;4962555;28;20257;-58
2022/10/08 12:11:39;;;;;;;3.60;2.10;;;;;;;;;;4974206;28;20211;-58
2022/10/08 12:14:12;;;;;;;3.80;1.90;;;;;;;;;;4971123;28;20215;-58
2022/10/08 12:16:49;;;;;;;2.17;1.73;;;;;;;;;;4988058;28;20167;-58
2022/10/08 12:19:34;;;;;;;2.20;1.80;;;;;;;;;;4970231;28;20207;-58
2022/10/08 12:22:00;;;;;;;3.50;1.93;;;;;;;;;;4953244;28;20183;-59
2022/10/08 12:24:38;;;;;;;2.33;1.60;;;;;;;;;;4983405;28;20654;-58
2022/10/08 12:27:17;;;;;;;5.83;2.67;;;;;;;;;;4965744;28;20270;-58
2022/10/08 12:29:55;;;;;;;5.63;1.83;;;;;;;;;;4966383;28;20554;-58
2022/10/08 12:32:49;;;;;;;2.67;1.60;;;;;;;;;;4967834;28;20171;-58
2022/10/08 12:35:24;;;;;;;3.53;1.90;;;;;;;;;;4969609;28;20202;-57
2022/10/08 12:38:04;;;;;;;2.97;1.70;;;;;;;;;;4963640;28;20253;-58
2022/10/08 12:40:35;;;;;;;2.80;2.10;;;;;;;;;;4969632;28;20176;-58
2022/10/08 12:43:09;;;;;;;2.10;1.80;;;;;;;;;;4965534;28;20182;-58
2022/10/08 12:45:43;;;;;;;2.00;1.73;;;;;;;;;;4969529;28;20680;-58
2022/10/08 12:48:12;;;;;;;3.93;1.87;;;;;;;;;;4957967;28;20191;-58
2022/10/08 12:50:39;;;;;;;4.57;1.77;;;;;;;;;;4971615;28;20176;-58
2022/10/08 12:53:07;;;;;;;2.80;1.87;;;;;;;;;;4968568;28;20187;-58
2022/10/08 12:55:36;;;;;;;2.53;1.50;;;;;;;;;;4968296;28;20211;-59
2022/10/08 12:58:02;;;;;;;2.17;1.57;;;;;;;;;;4968210;28;20271;-58
2022/10/08 13:00:30;;;;;;;4.97;1.60;;;;;;;;;;4965630;28;20180;-58
2022/10/08 13:03:12;;;;;;;3.73;1.70;;;;;;;;;;4961972;28;20179;-58
2022/10/08 13:05:39;;;;;;;4.00;1.70;;;;;;;;;;4972501;28;20351;-59
2022/10/08 13:08:23;;;;;;;3.20;1.63;;;;;;;;;;4988105;28;20179;-58
2022/10/08 13:10:50;;;;;;;2.23;1.50;;;;;;;;;;4990517;28;20162;-58
2022/10/08 13:13:52;;;;;;;2.87;1.57;;;;;;;;;;4988716;28;20655;-59
2022/10/08 13:16:20;;;;;;;3.00;1.63;;;;;;;;;;4928978;29;20749;-58
2022/10/08 13:18:52;;;;;;;2.00;1.80;;;;;;;;;;4968366;28;20686;-58
2022/10/08 13:21:30;;;;;;;2.00;1.53;;;;;;;;;;4988917;28;20182;-59
2022/10/08 13:23:58;;;;;;;3.43;1.73;;;;;;;;;;5000303;28;20947;-58
2022/10/08 13:26:36;;;;;;;1.97;1.60;;;;;;;;;;4972343;28;20182;-59
2022/10/08 13:29:25;;;;;;;2.73;1.50;;;;;;;;;;4988678;28;20197;-58
2022/10/08 13:31:52;;;;;;;7.23;1.70;;;;;;;;;;4988741;28;20591;-59
2022/10/08 13:34:18;;;;;;;2.63;2.10;;;;;;;;;;4993573;28;20217;-59
2022/10/08 13:36:49;;;;;;;3.20;1.77;;;;;;;;;;4990193;28;20245;-58
2022/10/08 13:39:20;;;;;;;2.43;1.73;;;;;;;;;;4989187;28;20199;-58
2022/10/08 13:41:51;;;;;;;3.83;1.53;;;;;;;;;;4970023;28;20629;-59
2022/10/08 13:44:17;;;;;;;3.33;1.50;;;;;;;;;;4983783;28;20200;-58
2022/10/08 13:46:47;;;;;;;3.20;1.80;;;;;;;;;;4991940;28;20174;-58
2022/10/08 13:49:19;;;;;;;2.67;1.63;;;;;;;;;;4992301;28;20252;-57
2022/10/08 13:51:45;;;;;;;2.13;1.47;;;;;;;;;;4989826;28;20584;-59
2022/10/08 13:54:12;;;;;;;1.33;1.30;;;;;;;;;;4987584;28;20270;-58
2022/10/08 13:56:38;;;;;;;3.60;1.73;;;;;;;;;;4989493;28;20190;-58
2022/10/08 13:59:04;;;;;;;2.10;1.87;;;;;;;;;;4988175;28;20243;-58
2022/10/08 14:01:30;;;;;;;3.43;1.80;;;;;;;;;;5005456;28;20244;-58
2022/10/08 14:03:56;;;;;;;2.47;1.70;;;;;;;;;;4989045;28;20205;-57
2022/10/08 14:06:23;;;;;;;2.43;1.80;;;;;;;;;;5008047;28;20218;-57
2022/10/08 14:08:49;;;;;;;2.93;1.90;;;;;;;;;;4993480;28;20191;-58
2022/10/08 14:11:16;;;;;;;3.87;1.87;;;;;;;;;;4970438;28;20218;-58
2022/10/08 14:13:43;;;;;;;1.60;1.40;;;;;;;;;;4979570;28;20167;-58
2022/10/08 14:16:12;;;;;;;4.53;2.00;;;;;;;;;;4974843;28;20175;-58
2022/10/08 14:18:38;;;;;;;3.00;1.70;;;;;;;;;;5007569;28;20229;-57
2022/10/08 14:21:05;;;;;;;2.80;1.70;;;;;;;;;;5007150;28;20193;-57
2022/10/08 14:23:31;;;;;;;2.53;1.93;;;;;;;;;;5006405;28;20588;-58
2022/10/08 14:25:58;;;;;;;2.37;1.27;;;;;;;;;;5008508;28;20185;-58
2022/10/08 14:28:24;;;;;;;2.70;1.60;;;;;;;;;;4991224;28;20182;-58
2022/10/08 14:30:50;;;;;;;3.17;1.60;;;;;;;;;;5007365;28;20180;-57
2022/10/08 14:33:16;;;;;;;3.77;1.60;;;;;;;;;;5006697;28;20285;-58
2022/10/08 14:35:49;;;;;;;2.67;1.90;;;;;;;;;;5006456;28;20186;-58
2022/10/08 14:38:15;;;;;;;4.33;1.53;;;;;;;;;;4990891;28;20940;-58
2022/10/08 14:40:42;;;;;;;2.13;1.60;;;;;;;;;;5007376;28;20171;-58
2022/10/08 14:43:08;;;;;;;4.43;2.77;;;;;;;;;;5007498;28;20237;-57
2022/10/08 14:45:34;;;;;;;3.67;1.60;;;;;;;;;;5008868;28;20831;-58
2022/10/08 14:48:00;;;;;;;1.87;1.53;;;;;;;;;;5006075;28;20289;-58
2022/10/08 14:50:27;;;;;;;2.57;1.80;;;;;;;;;;5005816;28;20552;-57
2022/10/08 14:52:54;;;;;;;2.50;1.63;;;;;;;;;;4990540;28;20746;-58
2022/10/08 14:55:20;;;;;;;4.47;1.60;;;;;;;;;;5005128;28;20178;-58
2022/10/08 14:57:46;;;;;;;4.10;1.70;;;;;;;;;;4989671;28;20258;-57
2022/10/08 15:00:12;;;;;;;1.50;1.27;;;;;;;;;;5006545;28;20204;-58